createdAt,value
2023-05-10T00:00:23.443Z,25.00
2023-05-10T00:01:23.477Z,25.00
2023-05-10T00:02:23.574Z,25.00
2023-05-10T00:03:23.611Z,0.00
2023-05-10T00:04:23.520Z,0.00
2023-05-10T00:05:23.519Z,0.00
2023-05-10T00:06:23.533Z,0.00
2023-05-10T00:07:23.529Z,0.00
2023-05-10T00:08:23.542Z,0.00
2023-05-10T00:09:23.542Z,0.00
2023-05-10T00:10:23.543Z,10.03
2023-05-10T00:11:23.547Z,24.93
2023-05-10T00:12:23.546Z,23.89
2023-05-10T00:13:23.603Z,23.92
2023-05-10T00:14:23.551Z,25.00
2023-05-10T00:15:23.560Z,25.51
2023-05-10T00:16:23.566Z,25.00
2023-05-10T00:17:23.706Z,25.53
2023-05-10T00:18:23.559Z,27.05
2023-05-10T00:19:23.569Z,26.00
2023-05-10T00:20:23.597Z,25.03
2023-05-10T00:21:23.608Z,25.00
2023-05-10T00:22:23.638Z,25.54
2023-05-10T00:23:23.644Z,28.93
2023-05-10T00:24:23.669Z,26.69
2023-05-10T00:25:23.716Z,25.93
2023-05-10T00:26:23.720Z,29.03
2023-05-10T00:27:23.729Z,26.38
2023-05-10T00:28:23.729Z,25.00
2023-05-10T00:29:23.770Z,26.16
2023-05-10T00:30:23.736Z,25.00
2023-05-10T00:31:23.791Z,26.83
2023-05-10T00:32:23.845Z,30.23
2023-05-10T00:33:23.766Z,28.00
2023-05-10T00:34:23.792Z,26.52
2023-05-10T00:35:23.868Z,27.18
2023-05-10T00:36:23.858Z,25.55
2023-05-10T00:37:23.888Z,26.06
2023-05-10T00:38:23.900Z,27.38
2023-05-10T00:39:23.928Z,25.00
2023-05-10T00:40:23.939Z,26.56
2023-05-10T00:41:23.947Z,25.10
2023-05-10T00:42:23.945Z,25.00
2023-05-10T00:43:23.957Z,28.03
2023-05-10T00:44:23.960Z,27.36
2023-05-10T00:45:24.020Z,26.58
2023-05-10T00:46:24.025Z,27.30
2023-05-10T00:47:24.038Z,25.00
2023-05-10T00:48:24.019Z,28.72
2023-05-10T00:49:24.044Z,26.13
2023-05-10T00:50:24.058Z,29.36
2023-05-10T00:51:24.078Z,26.71
2023-05-10T00:52:24.100Z,27.82
2023-05-10T00:53:24.080Z,25.99
2023-05-10T00:54:24.101Z,28.51
2023-05-10T00:55:24.103Z,25.00
2023-05-10T00:56:24.101Z,26.57
2023-05-10T00:57:24.103Z,28.86
2023-05-10T00:58:24.120Z,32.35
2023-05-10T00:59:24.130Z,28.05
2023-05-10T01:00:24.131Z,28.34
2023-05-10T01:01:24.189Z,27.65
2023-05-10T01:02:24.251Z,30.01
2023-05-10T01:03:24.192Z,28.13
2023-05-10T01:04:24.171Z,31.68
2023-05-10T01:05:24.217Z,29.89
2023-05-10T01:06:24.175Z,28.42
2023-05-10T01:07:24.172Z,27.99
2023-05-10T01:08:24.175Z,28.33
2023-05-10T01:09:24.188Z,25.44
2023-05-10T01:10:24.204Z,29.32
2023-05-10T01:11:24.219Z,29.65
2023-05-10T01:12:24.302Z,29.89
2023-05-10T01:13:24.333Z,27.90
2023-05-10T01:14:24.260Z,30.00
2023-05-10T01:15:24.279Z,29.04
2023-05-10T01:16:24.339Z,28.11
2023-05-10T01:17:24.356Z,27.66
2023-05-10T01:18:24.293Z,25.48
2023-05-10T01:19:24.296Z,29.51
2023-05-10T01:20:24.307Z,28.30
2023-05-10T01:21:24.321Z,26.14
2023-05-10T01:22:24.352Z,29.17
2023-05-10T01:23:24.399Z,26.29
2023-05-10T01:24:24.411Z,27.75
2023-05-10T01:25:24.443Z,28.28
2023-05-10T01:26:24.471Z,28.24
2023-05-10T01:27:24.496Z,25.03
2023-05-10T01:28:24.527Z,30.94
2023-05-10T01:29:24.546Z,30.66
2023-05-10T01:30:24.753Z,29.23
2023-05-10T01:31:24.653Z,27.11
2023-05-10T01:32:24.654Z,30.29
2023-05-10T01:33:24.712Z,27.05
2023-05-10T01:34:24.704Z,26.30
2023-05-10T01:35:24.731Z,29.58
2023-05-10T01:36:24.767Z,28.23
2023-05-10T01:37:24.791Z,28.37
2023-05-10T01:38:24.852Z,26.62
2023-05-10T01:39:24.856Z,26.83
2023-05-10T01:40:24.872Z,26.26
2023-05-10T01:41:24.891Z,28.74
2023-05-10T01:42:24.912Z,27.73
2023-05-10T01:43:24.946Z,27.16
2023-05-10T01:44:24.949Z,26.87
2023-05-10T01:45:24.967Z,27.86
2023-05-10T01:46:25.013Z,26.43
2023-05-10T01:47:24.973Z,28.76
2023-05-10T01:48:24.971Z,30.34
2023-05-10T01:49:24.994Z,28.52
2023-05-10T01:50:24.978Z,29.14
2023-05-10T01:51:24.990Z,28.77
2023-05-10T01:52:25.010Z,32.57
2023-05-10T01:53:25.028Z,27.95
2023-05-10T01:54:25.054Z,28.42
2023-05-10T01:55:25.044Z,30.46
2023-05-10T01:56:25.047Z,29.39
2023-05-10T01:57:25.055Z,31.09
2023-05-10T01:58:25.067Z,27.63
2023-05-10T01:59:25.086Z,28.52
2023-05-10T02:00:25.097Z,28.02
2023-05-10T02:01:25.094Z,28.09
2023-05-10T02:02:25.126Z,29.33
2023-05-10T02:03:25.158Z,30.16
2023-05-10T02:04:25.121Z,27.57
2023-05-10T02:05:25.158Z,27.33
2023-05-10T02:06:25.138Z,28.98
2023-05-10T02:07:25.163Z,33.83
2023-05-10T02:08:25.150Z,28.33
2023-05-10T02:09:25.168Z,28.59
2023-05-10T02:10:25.176Z,31.03
2023-05-10T02:11:26.100Z,27.20
2023-05-10T02:12:25.201Z,29.65
2023-05-10T02:13:25.265Z,25.74
2023-05-10T02:14:25.234Z,27.69
2023-05-10T02:15:25.234Z,26.84
2023-05-10T02:16:25.271Z,28.36
2023-05-10T02:17:25.298Z,27.66
2023-05-10T02:18:25.287Z,29.42
2023-05-10T02:19:25.292Z,29.01
2023-05-10T02:20:25.294Z,29.72
2023-05-10T02:21:25.334Z,29.35
2023-05-10T02:22:25.329Z,27.69
2023-05-10T02:23:25.348Z,30.82
2023-05-10T02:24:25.345Z,28.37
2023-05-10T02:25:25.333Z,30.94
2023-05-10T02:26:25.342Z,29.47
2023-05-10T02:27:25.361Z,28.03
2023-05-10T02:28:25.425Z,31.46
2023-05-10T02:29:25.391Z,26.33
2023-05-10T02:30:25.384Z,28.92
2023-05-10T02:31:25.449Z,26.38
2023-05-10T02:32:25.429Z,27.22
2023-05-10T02:33:25.415Z,30.37
2023-05-10T02:34:25.427Z,32.85
2023-05-10T02:35:25.438Z,32.58
2023-05-10T02:36:25.444Z,30.39
2023-05-10T02:37:25.482Z,30.49
2023-05-10T02:38:25.463Z,30.13
2023-05-10T02:39:25.469Z,33.32
2023-05-10T02:40:27.993Z,28.61
2023-05-10T02:41:25.474Z,28.78
2023-05-10T02:42:25.470Z,29.42
2023-05-10T02:43:25.477Z,30.33
2023-05-10T02:44:25.475Z,28.94
2023-05-10T02:45:25.473Z,30.56
2023-05-10T02:46:25.514Z,27.94
2023-05-10T02:47:25.477Z,32.28
2023-05-10T02:48:25.468Z,30.53
2023-05-10T02:49:25.470Z,30.69
2023-05-10T02:50:25.462Z,29.22
2023-05-10T02:51:25.464Z,31.61
2023-05-10T02:52:25.465Z,31.27
2023-05-10T02:53:25.488Z,31.97
2023-05-10T02:54:25.472Z,31.86
2023-05-10T02:55:25.467Z,32.83
2023-05-10T02:56:25.465Z,27.91
2023-05-10T02:57:25.470Z,30.77
2023-05-10T02:58:25.476Z,32.95
2023-05-10T02:59:25.467Z,31.50
2023-05-10T03:00:25.467Z,30.47
2023-05-10T03:01:25.545Z,28.67
2023-05-10T03:02:25.503Z,29.57
2023-05-10T03:03:25.486Z,31.42
2023-05-10T03:04:25.520Z,29.84
2023-05-10T03:05:25.488Z,30.77
2023-05-10T03:06:25.487Z,28.63
2023-05-10T03:07:25.488Z,29.11
2023-05-10T03:08:25.477Z,31.00
2023-05-10T03:09:25.512Z,27.39
2023-05-10T03:10:25.480Z,29.09
2023-05-10T03:11:25.472Z,27.78
2023-05-10T03:12:25.472Z,33.17
2023-05-10T03:13:25.539Z,31.79
2023-05-10T03:14:25.468Z,30.57
2023-05-10T03:15:25.476Z,30.78
2023-05-10T03:16:25.490Z,30.71
2023-05-10T03:17:25.557Z,31.39
2023-05-10T03:18:25.467Z,31.74
2023-05-10T03:19:25.469Z,30.37
2023-05-10T03:20:25.467Z,31.94
2023-05-10T03:21:25.464Z,31.43
2023-05-10T03:22:25.461Z,30.90
2023-05-10T03:23:25.463Z,29.12
2023-05-10T03:24:25.487Z,30.07
2023-05-10T03:25:25.498Z,32.48
2023-05-10T03:26:25.474Z,29.69
2023-05-10T03:27:25.476Z,29.82
2023-05-10T03:28:25.482Z,32.43
2023-05-10T03:29:25.476Z,32.94
2023-05-10T03:30:25.483Z,30.51
2023-05-10T03:31:25.488Z,33.82
2023-05-10T03:32:25.491Z,33.18
2023-05-10T03:33:25.467Z,30.39
2023-05-10T03:34:25.463Z,30.72
2023-05-10T03:35:25.459Z,30.69
2023-05-10T03:36:25.456Z,32.64
2023-05-10T03:37:25.451Z,28.98
2023-05-10T03:38:25.447Z,32.40
2023-05-10T03:39:25.447Z,30.52
2023-05-10T03:40:25.458Z,31.21
2023-05-10T03:41:25.462Z,33.00
2023-05-10T03:42:25.436Z,31.42
2023-05-10T03:43:25.434Z,31.53
2023-05-10T03:44:25.435Z,30.30
2023-05-10T03:45:25.437Z,28.94
2023-05-10T03:46:25.461Z,30.89
2023-05-10T03:47:25.452Z,31.43
2023-05-10T03:48:25.434Z,32.28
2023-05-10T03:49:25.428Z,29.25
2023-05-10T03:50:25.443Z,31.05
2023-05-10T03:51:25.436Z,32.22
2023-05-10T03:52:25.455Z,31.26
2023-05-10T03:53:25.426Z,28.57
2023-05-10T03:54:25.431Z,33.27
2023-05-10T03:55:25.432Z,31.59
2023-05-10T03:56:25.428Z,31.59
2023-05-10T03:57:25.454Z,31.65
2023-05-10T03:58:25.433Z,33.73
2023-05-10T03:59:25.440Z,34.60
2023-05-10T04:00:25.437Z,34.50
2023-05-10T04:01:25.447Z,32.69
2023-05-10T04:02:25.620Z,32.27
2023-05-10T04:03:25.502Z,30.14
2023-05-10T04:04:25.449Z,30.21
2023-05-10T04:05:25.464Z,32.82
2023-05-10T04:06:25.517Z,30.78
2023-05-10T04:07:25.474Z,33.71
2023-05-10T04:08:25.464Z,32.49
2023-05-10T04:09:25.472Z,35.14
2023-05-10T04:10:25.474Z,32.24
2023-05-10T04:11:25.470Z,34.23
2023-05-10T04:12:25.467Z,30.73
2023-05-10T04:13:25.543Z,34.89
2023-05-10T04:14:25.466Z,33.52
2023-05-10T04:15:25.466Z,30.17
2023-05-10T04:16:25.489Z,29.36
2023-05-10T04:17:25.508Z,32.40
2023-05-10T04:18:25.468Z,30.51
2023-05-10T04:19:25.475Z,33.66
2023-05-10T04:20:25.472Z,34.47
2023-05-10T04:21:25.485Z,31.19
2023-05-10T04:22:25.477Z,29.90
2023-05-10T04:23:25.490Z,30.74
2023-05-10T04:24:25.482Z,33.28
2023-05-10T04:25:25.485Z,29.79
2023-05-10T04:26:25.484Z,32.37
2023-05-10T04:27:25.500Z,31.26
2023-05-10T04:28:25.511Z,30.77
2023-05-10T04:29:25.538Z,34.63
2023-05-10T04:30:25.503Z,31.94
2023-05-10T04:31:25.634Z,31.91
2023-05-10T04:32:25.582Z,32.50
2023-05-10T04:33:25.527Z,35.79
2023-05-10T04:34:25.667Z,32.17
2023-05-10T04:35:25.545Z,30.28
2023-05-10T04:36:25.556Z,31.99
2023-05-10T04:37:25.566Z,32.93
2023-05-10T04:38:25.584Z,31.26
2023-05-10T04:39:25.594Z,33.02
2023-05-10T04:40:25.585Z,32.69
2023-05-10T04:41:25.589Z,33.49
2023-05-10T04:42:25.595Z,32.26
2023-05-10T04:43:25.598Z,35.15
2023-05-10T04:44:25.603Z,35.59
2023-05-10T04:45:25.640Z,31.89
2023-05-10T04:46:25.678Z,30.67
2023-05-10T04:47:25.630Z,30.61
2023-05-10T04:48:25.626Z,31.21
2023-05-10T04:49:25.631Z,33.22
2023-05-10T04:50:25.634Z,28.56
2023-05-10T04:51:25.644Z,31.88
2023-05-10T04:52:25.654Z,29.96
2023-05-10T04:53:25.647Z,30.71
2023-05-10T04:54:25.661Z,30.44
2023-05-10T04:55:25.657Z,31.61
2023-05-10T04:56:25.649Z,34.25
2023-05-10T04:57:25.664Z,35.47
2023-05-10T04:58:25.665Z,34.78
2023-05-10T04:59:25.667Z,35.67
2023-05-10T05:00:25.665Z,32.22
2023-05-10T05:01:25.914Z,34.47
2023-05-10T05:02:25.757Z,34.18
2023-05-10T05:03:25.849Z,34.46
2023-05-10T05:04:25.678Z,33.08
2023-05-10T05:05:25.684Z,32.09
2023-05-10T05:06:25.693Z,32.09
2023-05-10T05:07:25.684Z,31.72
2023-05-10T05:08:25.718Z,32.27
2023-05-10T05:09:25.708Z,31.53
2023-05-10T05:10:25.689Z,35.47
2023-05-10T05:11:25.695Z,33.17
2023-05-10T05:12:25.700Z,30.77
2023-05-10T05:13:25.906Z,31.08
2023-05-10T05:14:25.720Z,31.79
2023-05-10T05:15:25.721Z,30.85
2023-05-10T05:16:25.756Z,34.52
2023-05-10T05:17:25.794Z,31.84
2023-05-10T05:18:25.771Z,36.18
2023-05-10T05:19:26.179Z,35.28
2023-05-10T05:20:25.768Z,36.36
2023-05-10T05:21:25.780Z,35.99
2023-05-10T05:22:25.793Z,34.55
2023-05-10T05:23:25.889Z,35.94
2023-05-10T05:24:25.815Z,35.91
2023-05-10T05:25:25.821Z,36.56
2023-05-10T05:26:25.829Z,39.12
2023-05-10T05:27:25.840Z,38.32
2023-05-10T05:28:25.852Z,36.88
2023-05-10T05:29:25.869Z,35.90
2023-05-10T05:30:25.868Z,33.08
2023-05-10T05:31:25.912Z,31.06
2023-05-10T05:32:25.916Z,27.56
2023-05-10T05:33:25.928Z,30.23
2023-05-10T05:34:25.930Z,27.90
2023-05-10T05:35:25.935Z,32.37
2023-05-10T05:36:26.002Z,29.64
2023-05-10T05:37:25.976Z,29.51
2023-05-10T05:38:25.988Z,33.19
2023-05-10T05:39:26.024Z,29.55
2023-05-10T05:40:26.013Z,29.59
2023-05-10T05:41:26.001Z,31.51
2023-05-10T05:42:26.019Z,31.57
2023-05-10T05:43:26.038Z,28.77
2023-05-10T05:44:26.191Z,30.70
2023-05-10T05:45:26.210Z,31.24
2023-05-10T05:46:26.133Z,32.00
2023-05-10T05:47:26.150Z,31.63
2023-05-10T05:48:26.128Z,32.93
2023-05-10T05:49:26.237Z,30.27
2023-05-10T05:50:26.204Z,33.72
2023-05-10T05:51:26.198Z,34.74
2023-05-10T05:52:26.175Z,34.02
2023-05-10T05:53:26.199Z,37.10
2023-05-10T05:54:26.717Z,37.02
2023-05-10T05:55:26.237Z,38.02
2023-05-10T05:56:26.254Z,39.91
2023-05-10T05:57:26.467Z,39.19
2023-05-10T05:58:26.732Z,41.28
2023-05-10T05:59:26.694Z,41.14
2023-05-10T06:00:26.356Z,45.72
2023-05-10T06:01:26.373Z,42.22
2023-05-10T06:02:26.452Z,41.59
2023-05-10T06:03:26.563Z,43.33
2023-05-10T06:04:26.748Z,44.61
2023-05-10T06:05:27.026Z,47.67
2023-05-10T06:06:26.470Z,44.93
2023-05-10T06:07:26.478Z,44.20
2023-05-10T06:08:26.544Z,44.88
2023-05-10T06:09:27.516Z,48.19
2023-05-10T06:10:26.545Z,49.20
2023-05-10T06:11:26.564Z,49.20
2023-05-10T06:12:26.701Z,47.70
2023-05-10T06:13:26.772Z,49.54
2023-05-10T06:14:26.715Z,47.41
2023-05-10T06:15:26.704Z,47.93
2023-05-10T06:16:26.706Z,49.38
2023-05-10T06:17:26.742Z,49.50
2023-05-10T06:18:26.723Z,51.61
2023-05-10T06:19:26.744Z,48.90
2023-05-10T06:20:27.516Z,50.70
2023-05-10T06:21:26.818Z,48.04
2023-05-10T06:22:26.800Z,48.63
2023-05-10T06:23:26.826Z,50.95
2023-05-10T06:24:27.229Z,46.23
2023-05-10T06:25:26.870Z,51.16
2023-05-10T06:26:26.897Z,49.33
2023-05-10T06:27:26.937Z,47.77
2023-05-10T06:28:26.946Z,47.63
2023-05-10T06:29:27.219Z,45.68
2023-05-10T06:30:27.023Z,45.63
2023-05-10T06:31:27.061Z,48.12
2023-05-10T06:32:27.062Z,46.48
2023-05-10T06:33:27.076Z,42.78
2023-05-10T06:34:27.220Z,45.03
2023-05-10T06:35:27.112Z,40.71
2023-05-10T06:36:27.132Z,42.43
2023-05-10T06:37:27.169Z,41.11
2023-05-10T06:38:27.211Z,37.61
2023-05-10T06:39:27.186Z,37.51
2023-05-10T06:40:27.233Z,35.26
2023-05-10T06:41:27.231Z,36.85
2023-05-10T06:42:27.252Z,33.98
2023-05-10T06:43:27.760Z,34.47
2023-05-10T06:44:27.375Z,39.54
2023-05-10T06:45:27.718Z,36.11
2023-05-10T06:46:27.360Z,35.83
2023-05-10T06:47:27.429Z,33.46
2023-05-10T06:48:27.383Z,34.71
2023-05-10T06:49:27.719Z,32.54
2023-05-10T06:50:28.220Z,29.30
2023-05-10T06:51:27.460Z,31.20
2023-05-10T06:52:27.453Z,34.75
2023-05-10T06:53:27.513Z,29.83
2023-05-10T06:54:27.726Z,28.40
2023-05-10T06:55:27.544Z,30.63
2023-05-10T06:56:30.761Z,31.17
2023-05-10T06:57:31.689Z,31.18
2023-05-10T06:58:28.227Z,31.44
2023-05-10T06:59:28.853Z,28.02
2023-05-10T07:00:27.845Z,25.14
2023-05-10T07:01:27.874Z,24.08
2023-05-10T07:02:27.917Z,21.94
2023-05-10T07:03:27.851Z,25.00
2023-05-10T07:04:28.340Z,27.08
2023-05-10T07:05:27.921Z,29.18
2023-05-10T07:06:33.483Z,25.37
2023-05-10T07:07:27.924Z,25.53
2023-05-10T07:08:27.940Z,26.17
2023-05-10T07:09:27.967Z,25.65
2023-05-10T07:10:28.231Z,24.70
2023-05-10T07:11:27.949Z,26.53
2023-05-10T07:12:27.963Z,26.86
2023-05-10T07:13:27.980Z,27.85
2023-05-10T07:14:28.227Z,27.53
2023-05-10T07:15:27.945Z,25.26
2023-05-10T07:16:28.275Z,25.95
2023-05-10T07:17:28.035Z,26.90
2023-05-10T07:18:27.999Z,24.81
2023-05-10T07:19:27.948Z,25.00
2023-05-10T07:20:27.950Z,26.51
2023-05-10T07:21:28.276Z,30.33
2023-05-10T07:22:27.973Z,26.93
2023-05-10T07:23:27.958Z,26.23
2023-05-10T07:24:27.980Z,30.18
2023-05-10T07:25:27.996Z,27.46
2023-05-10T07:26:28.262Z,26.01
2023-05-10T07:27:27.965Z,25.00
2023-05-10T07:28:27.983Z,25.62
2023-05-10T07:29:28.239Z,29.34
2023-05-10T07:30:28.032Z,27.79
2023-05-10T07:31:27.998Z,28.71
2023-05-10T07:32:28.342Z,25.00
2023-05-10T07:33:31.258Z,25.43
2023-05-10T07:34:28.005Z,25.64
2023-05-10T07:35:28.258Z,25.06
2023-05-10T07:36:28.040Z,20.99
2023-05-10T07:37:28.021Z,20.55
2023-05-10T07:38:28.041Z,17.34
2023-05-10T07:39:28.426Z,27.29
2023-05-10T07:40:28.239Z,25.00
2023-05-10T07:41:28.149Z,26.36
2023-05-10T07:42:28.077Z,26.02
2023-05-10T07:43:28.069Z,28.38
2023-05-10T07:44:28.269Z,25.00
2023-05-10T07:45:28.134Z,25.00
2023-05-10T07:46:29.092Z,29.66
2023-05-10T07:47:28.095Z,26.43
2023-05-10T07:48:28.050Z,28.39
2023-05-10T07:49:28.294Z,25.00
2023-05-10T07:50:28.079Z,25.68
2023-05-10T07:51:28.086Z,29.50
2023-05-10T07:52:28.177Z,30.54
2023-05-10T07:53:28.082Z,28.93
2023-05-10T07:54:29.252Z,27.29
2023-05-10T07:55:28.066Z,28.69
2023-05-10T07:56:28.080Z,26.85
2023-05-10T07:57:28.108Z,27.16
2023-05-10T07:58:28.086Z,30.74
2023-05-10T07:59:29.284Z,25.00
2023-05-10T08:00:28.105Z,25.28
2023-05-10T08:01:28.243Z,27.72
2023-05-10T08:02:28.140Z,29.67
2023-05-10T08:03:28.172Z,30.75
2023-05-10T08:04:28.122Z,32.64
2023-05-10T08:05:28.273Z,32.40
2023-05-10T08:06:28.100Z,33.07
2023-05-10T08:07:28.094Z,35.88
2023-05-10T08:08:28.120Z,31.87
2023-05-10T08:09:28.105Z,32.21
2023-05-10T08:10:28.098Z,35.40
2023-05-10T08:11:28.098Z,31.11
2023-05-10T08:12:28.095Z,37.41
2023-05-10T08:13:28.118Z,36.42
2023-05-10T08:14:28.108Z,33.79
2023-05-10T08:15:28.128Z,30.37
2023-05-10T08:16:28.174Z,29.60
2023-05-10T08:17:28.179Z,29.19
2023-05-10T08:18:28.189Z,26.38
2023-05-10T08:19:28.208Z,27.68
2023-05-10T08:20:28.254Z,26.57
2023-05-10T08:21:28.263Z,25.00
2023-05-10T08:22:29.295Z,25.95
2023-05-10T08:23:28.293Z,32.01
2023-05-10T08:24:28.314Z,31.64
2023-05-10T08:25:28.748Z,35.90
2023-05-10T08:26:28.356Z,36.81
2023-05-10T08:27:28.373Z,32.30
2023-05-10T08:28:28.401Z,34.75
2023-05-10T08:29:32.704Z,31.09
2023-05-10T08:30:28.421Z,31.29
2023-05-10T08:31:28.490Z,31.99
2023-05-10T08:32:28.448Z,33.99
2023-05-10T08:33:28.411Z,33.02
2023-05-10T08:34:28.417Z,31.18
2023-05-10T08:35:28.762Z,31.12
2023-05-10T08:36:28.417Z,31.86
2023-05-10T08:37:28.414Z,28.42
2023-05-10T08:38:44.037Z,32.20
2023-05-10T08:39:30.695Z,32.61
2023-05-10T08:40:28.801Z,32.64
2023-05-10T08:41:28.835Z,33.28
2023-05-10T08:43:28.421Z,32.66
2023-05-10T08:44:28.414Z,33.84
2023-05-10T08:45:28.791Z,34.40
2023-05-10T08:46:28.455Z,33.32
2023-05-10T08:47:28.438Z,33.80
2023-05-10T08:48:28.369Z,31.38
2023-05-10T08:49:28.389Z,33.58
2023-05-10T08:50:28.758Z,30.18
2023-05-10T08:51:28.364Z,28.45
2023-05-10T08:52:28.894Z,30.02
2023-05-10T08:53:28.381Z,30.67
2023-05-10T08:54:28.688Z,28.64
2023-05-10T08:55:28.769Z,29.28
2023-05-10T08:56:28.404Z,27.28
2023-05-10T08:57:28.372Z,31.06
2023-05-10T08:58:28.772Z,33.00
2023-05-10T08:59:28.379Z,34.45
2023-05-10T09:00:28.381Z,31.33
2023-05-10T09:01:28.540Z,34.73
2023-05-10T09:02:28.426Z,37.77
2023-05-10T09:03:28.402Z,35.56
2023-05-10T09:04:28.494Z,34.14
2023-05-10T09:05:28.462Z,34.05
2023-05-10T09:06:28.416Z,36.60
2023-05-10T09:07:28.416Z,32.55
2023-05-10T09:08:28.426Z,31.71
2023-05-10T09:09:28.773Z,33.48
2023-05-10T09:10:28.433Z,29.94
2023-05-10T09:11:28.421Z,31.04
2023-05-10T09:12:28.426Z,34.00
2023-05-10T09:13:28.429Z,37.37
2023-05-10T09:14:28.422Z,36.38
2023-05-10T09:15:28.778Z,35.79
2023-05-10T09:16:28.453Z,38.13
2023-05-10T09:17:28.556Z,39.56
2023-05-10T09:18:28.452Z,30.80
2023-05-10T09:19:28.433Z,33.37
2023-05-10T09:20:28.777Z,36.89
2023-05-10T09:21:28.439Z,33.45
2023-05-10T09:22:28.449Z,35.63
2023-05-10T09:23:28.444Z,38.16
2023-05-10T09:24:28.467Z,37.22
2023-05-10T09:25:28.782Z,39.12
2023-05-10T09:26:28.449Z,37.53
2023-05-10T09:27:28.445Z,39.50
2023-05-10T09:28:28.447Z,39.14
2023-05-10T09:29:28.786Z,39.62
2023-05-10T09:30:28.449Z,38.22
2023-05-10T09:31:28.489Z,39.82
2023-05-10T09:32:28.497Z,39.82
2023-05-10T09:33:28.491Z,42.75
2023-05-10T09:34:28.780Z,37.94
2023-05-10T09:35:29.759Z,33.53
2023-05-10T09:36:28.554Z,33.84
2023-05-10T09:37:28.567Z,44.29
2023-05-10T09:38:28.780Z,40.66
2023-05-10T09:39:28.598Z,34.02
2023-05-10T09:40:28.633Z,31.91
2023-05-10T09:41:28.631Z,31.41
2023-05-10T09:42:29.280Z,35.10
2023-05-10T09:43:28.782Z,33.67
2023-05-10T09:44:28.696Z,33.83
2023-05-10T09:45:28.842Z,33.05
2023-05-10T09:46:28.795Z,29.30
2023-05-10T09:47:28.820Z,27.67
2023-05-10T09:48:28.738Z,27.87
2023-05-10T09:49:28.800Z,28.52
2023-05-10T09:50:28.760Z,25.79
2023-05-10T09:51:29.791Z,29.55
2023-05-10T09:52:28.801Z,33.14
2023-05-10T09:53:29.285Z,29.41
2023-05-10T09:54:28.831Z,26.52
2023-05-10T09:55:28.845Z,29.44
2023-05-10T09:56:29.397Z,28.99
2023-05-10T09:57:28.888Z,29.88
2023-05-10T09:58:28.902Z,27.34
2023-05-10T09:59:32.137Z,25.86
2023-05-10T10:00:29.300Z,25.96
2023-05-10T10:01:28.951Z,26.18
2023-05-10T10:02:28.928Z,26.34
2023-05-10T10:03:30.359Z,24.63
2023-05-10T10:04:29.378Z,27.73
2023-05-10T10:05:29.013Z,25.31
2023-05-10T10:06:30.428Z,26.43
2023-05-10T10:07:28.940Z,25.00
2023-05-10T10:08:28.938Z,25.00
2023-05-10T10:09:28.934Z,28.04
2023-05-10T10:10:29.319Z,26.32
2023-05-10T10:11:28.932Z,25.00
2023-05-10T10:12:28.961Z,25.00
2023-05-10T10:13:28.986Z,29.00
2023-05-10T10:14:28.940Z,29.94
2023-05-10T10:15:29.293Z,32.24
2023-05-10T10:16:28.964Z,25.55
2023-05-10T10:17:28.976Z,26.91
2023-05-10T10:18:29.345Z,25.00
2023-05-10T10:19:28.932Z,26.37
2023-05-10T10:20:29.309Z,28.27
2023-05-10T10:21:29.392Z,25.00
2023-05-10T10:22:28.930Z,26.49
2023-05-10T10:23:28.939Z,30.28
2023-05-10T10:24:28.938Z,33.01
2023-05-10T10:25:28.931Z,33.52
2023-05-10T10:26:29.375Z,30.47
2023-05-10T10:27:28.932Z,35.34
2023-05-10T10:28:28.942Z,35.94
2023-05-10T10:29:28.940Z,36.03
2023-05-10T10:30:28.939Z,33.64
2023-05-10T10:31:29.345Z,34.06
2023-05-10T10:32:28.942Z,38.49
2023-05-10T10:33:29.375Z,39.16
2023-05-10T10:34:29.380Z,44.08
2023-05-10T10:35:28.937Z,43.01
2023-05-10T10:36:29.305Z,46.78
2023-05-10T10:37:28.948Z,48.59
2023-05-10T10:38:28.930Z,50.39
2023-05-10T10:39:29.335Z,52.30
2023-05-10T10:40:28.928Z,49.02
2023-05-10T10:41:29.309Z,48.62
2023-05-10T10:42:28.924Z,46.60
2023-05-10T10:43:28.945Z,45.30
2023-05-10T10:44:28.922Z,45.88
2023-05-10T10:45:28.922Z,42.60
2023-05-10T10:46:28.970Z,42.94
2023-05-10T10:47:28.924Z,38.46
2023-05-10T10:48:28.951Z,31.05
2023-05-10T10:49:28.908Z,29.87
2023-05-10T10:50:28.907Z,33.02
2023-05-10T10:51:29.314Z,39.08
2023-05-10T10:52:28.923Z,35.95
2023-05-10T10:53:29.030Z,33.49
2023-05-10T10:54:28.920Z,35.67
2023-05-10T10:55:28.920Z,38.66
2023-05-10T10:56:28.913Z,46.35
2023-05-10T10:57:28.921Z,41.53
2023-05-10T10:58:29.318Z,39.79
2023-05-10T10:59:28.959Z,36.85
2023-05-10T11:00:28.942Z,32.26
2023-05-10T11:01:29.020Z,36.89
2023-05-10T11:02:30.071Z,34.97
2023-05-10T11:03:28.930Z,32.54
2023-05-10T11:04:28.987Z,39.69
2023-05-10T11:05:28.939Z,44.52
2023-05-10T11:06:28.934Z,47.78
2023-05-10T11:07:28.936Z,44.06
2023-05-10T11:08:28.935Z,37.93
2023-05-10T11:09:28.966Z,34.59
2023-05-10T11:10:28.939Z,36.88
2023-05-10T11:11:28.936Z,36.48
2023-05-10T11:12:28.935Z,40.00
2023-05-10T11:13:28.932Z,41.65
2023-05-10T11:14:28.927Z,44.75
2023-05-10T11:15:28.928Z,46.34
2023-05-10T11:16:29.375Z,46.44
2023-05-10T11:17:28.978Z,43.17
2023-05-10T11:18:28.971Z,43.15
2023-05-10T11:19:28.949Z,41.65
2023-05-10T11:20:28.942Z,43.54
2023-05-10T11:21:28.950Z,37.56
2023-05-10T11:22:28.952Z,37.66
2023-05-10T11:23:28.955Z,35.38
2023-05-10T11:24:28.970Z,36.02
2023-05-10T11:25:28.988Z,33.39
2023-05-10T11:26:28.955Z,30.89
2023-05-10T11:27:28.958Z,31.43
2023-05-10T11:28:28.973Z,29.67
2023-05-10T11:29:28.981Z,30.45
2023-05-10T11:30:28.980Z,26.52
2023-05-10T11:31:29.052Z,26.18
2023-05-10T11:32:29.046Z,29.45
2023-05-10T11:33:29.000Z,30.01
2023-05-10T11:34:28.994Z,31.48
2023-05-10T11:35:29.013Z,29.14
2023-05-10T11:36:29.022Z,31.81
2023-05-10T11:37:29.018Z,26.55
2023-05-10T11:38:29.022Z,27.90
2023-05-10T11:39:29.025Z,26.24
2023-05-10T11:40:29.044Z,27.20
2023-05-10T11:41:29.067Z,27.08
2023-05-10T11:42:29.050Z,25.00
2023-05-10T11:43:29.094Z,25.00
2023-05-10T11:44:29.053Z,25.00
2023-05-10T11:45:29.059Z,30.35
2023-05-10T11:46:29.138Z,27.25
2023-05-10T11:47:29.110Z,28.46
2023-05-10T11:48:29.071Z,31.08
2023-05-10T11:49:29.080Z,27.20
2023-05-10T11:50:29.096Z,26.04
2023-05-10T11:51:29.087Z,25.31
2023-05-10T11:52:29.085Z,25.00
2023-05-10T11:53:29.086Z,25.00
2023-05-10T11:54:29.094Z,28.13
2023-05-10T11:55:29.094Z,26.08
2023-05-10T11:56:29.091Z,25.00
2023-05-10T11:57:29.132Z,26.76
2023-05-10T11:58:29.360Z,27.67
2023-05-10T11:59:29.095Z,31.24
2023-05-10T12:00:29.103Z,29.29
2023-05-10T12:01:29.355Z,29.23
2023-05-10T12:02:29.221Z,30.30
2023-05-10T12:03:29.274Z,26.88
2023-05-10T12:04:29.155Z,25.00
2023-05-10T12:05:29.115Z,28.82
2023-05-10T12:06:29.117Z,27.50
2023-05-10T12:07:29.125Z,26.76
2023-05-10T12:08:29.132Z,26.60
2023-05-10T12:10:28.160Z,32.14
2023-05-10T12:11:29.174Z,28.62
2023-05-10T12:12:29.160Z,26.67
2023-05-10T12:13:29.191Z,26.16
2023-05-10T12:14:29.180Z,25.54
2023-05-10T12:15:29.197Z,28.09
2023-05-10T12:16:29.293Z,29.25
2023-05-10T12:17:29.402Z,30.39
2023-05-10T12:18:29.226Z,30.82
2023-05-10T12:19:29.190Z,30.88
2023-05-10T12:20:29.190Z,34.56
2023-05-10T12:21:29.191Z,37.42
2023-05-10T12:22:29.205Z,41.16
2023-05-10T12:23:29.202Z,44.66
2023-05-10T12:24:29.195Z,45.18
2023-05-10T12:25:29.195Z,44.57
2023-05-10T12:26:29.215Z,42.68
2023-05-10T12:27:29.224Z,43.33
2023-05-10T12:28:29.234Z,44.26
2023-05-10T12:29:29.244Z,45.93
2023-05-10T12:30:29.223Z,49.08
2023-05-10T12:31:29.260Z,50.09
2023-05-10T12:32:29.249Z,46.19
2023-05-10T12:33:29.244Z,53.19
2023-05-10T12:34:29.241Z,55.12
2023-05-10T12:35:29.243Z,52.73
2023-05-10T12:36:29.245Z,55.87
2023-05-10T12:37:29.269Z,61.74
2023-05-10T12:38:29.251Z,57.78
2023-05-10T12:39:29.277Z,67.81
2023-05-10T12:40:29.301Z,68.75
2023-05-10T12:41:29.269Z,68.38
2023-05-10T12:42:29.274Z,69.44
2023-05-10T12:43:29.362Z,67.04
2023-05-10T12:44:29.282Z,65.29
2023-05-10T12:45:29.328Z,68.33
2023-05-10T12:46:29.428Z,64.25
2023-05-10T12:47:29.319Z,65.91
2023-05-10T12:48:29.305Z,64.91
2023-05-10T12:49:29.304Z,67.70
2023-05-10T12:50:29.316Z,73.15
2023-05-10T12:51:29.357Z,75.79
2023-05-10T12:52:29.326Z,78.52
2023-05-10T12:53:29.326Z,80.33
2023-05-10T12:54:29.336Z,79.64